Time;durP1;ratioP1;P1;durP2;ratioP2;P2;SDS_P1;SDS_P2;PMS_P1;PMS_P2;Temp;Humidity;BMP_temperature;BMP_pressure;BME280_temperature;BME280_humidity;BME280_pressure;Samples;Min_cycle;Max_cycle;Signal;HPM_P1;HPM_P2
2022/08/05 00:00:15;;;;;;;8.55;5.10;;;24.00;99.90;;;;;;5109400;28;20674;-51
2022/08/05 00:02:44;;;;;;;7.25;5.10;;;24.00;99.90;;;;;;5109434;28;20203;-50
2022/08/05 00:05:19;;;;;;;10.93;5.70;;;24.00;99.90;;;;;;5109366;28;20203;-51
2022/08/05 00:08:09;;;;;;;7.78;5.28;;;24.00;99.90;;;;;;5109334;28;20290;-51
2022/08/05 00:10:59;;;;;;;7.00;5.18;;;23.90;99.90;;;;;;5109782;28;20637;-51
2022/08/05 00:13:30;;;;;;;8.07;4.72;;;23.90;99.90;;;;;;5109540;28;20215;-51
2022/08/05 00:16:08;;;;;;;8.38;4.60;;;23.90;99.90;;;;;;5109845;28;20207;-52
2022/08/05 00:18:40;;;;;;;5.13;4.40;;;23.90;99.90;;;;;;5106298;28;20228;-51
2022/08/05 00:21:09;;;;;;;7.88;4.38;;;23.90;99.90;;;;;;5109687;28;20859;-50
2022/08/05 00:23:38;;;;;;;9.48;4.68;;;23.80;99.90;;;;;;5108263;28;20740;-51
2022/08/05 00:26:21;;;;;;;5.10;4.03;;;23.70;99.90;;;;;;5113887;28;20211;-50
2022/08/05 00:28:50;;;;;;;5.20;3.80;;;23.80;99.90;;;;;;5102220;28;20647;-50
2022/08/05 00:31:18;;;;;;;6.75;4.60;;;23.80;99.90;;;;;;5114083;28;20621;-51
2022/08/05 00:34:07;;;;;;;4.43;3.75;;;23.70;99.90;;;;;;5102133;28;20283;-52
2022/08/05 00:36:55;;;;;;;5.03;4.18;;;23.70;99.90;;;;;;5113953;28;20294;-50
2022/08/05 00:39:39;;;;;;;4.70;3.65;;;23.60;99.90;;;;;;5112903;28;20315;-51
2022/08/05 00:42:15;;;;;;;4.63;4.07;;;23.60;99.90;;;;;;5113811;28;20894;-51
2022/08/05 00:44:59;;;;;;;6.82;3.78;;;23.50;99.90;;;;;;5113597;28;20227;-51
2022/08/05 00:47:27;;;;;;;5.68;4.10;;;23.60;99.90;;;;;;5113190;28;20560;-51
2022/08/05 00:50:15;;;;;;;6.15;3.95;;;23.60;99.90;;;;;;5113355;28;20226;-50
2022/08/05 00:52:43;;;;;;;3.95;3.47;;;23.50;99.90;;;;;;5112806;28;20199;-51
2022/08/05 00:55:13;;;;;;;4.38;3.63;;;23.50;99.90;;;;;;5112358;28;20208;-51
2022/08/05 00:57:43;;;;;;;4.43;3.70;;;23.50;99.90;;;;;;5113334;28;20231;-51
2022/08/05 01:00:27;;;;;;;5.38;3.95;;;23.50;99.90;;;;;;5113142;28;20233;-51
2022/08/05 01:02:55;;;;;;;6.55;4.07;;;23.50;99.90;;;;;;5112573;28;20204;-51
2022/08/05 01:05:24;;;;;;;5.25;4.50;;;23.50;99.90;;;;;;5113443;28;20241;-51
2022/08/05 01:07:54;;;;;;;7.38;4.10;;;23.50;99.90;;;;;;5112372;28;20294;-52
2022/08/05 01:10:48;;;;;;;5.32;4.10;;;23.50;99.90;;;;;;5113250;28;20294;-51
2022/08/05 01:13:31;;;;;;;8.38;5.00;;;23.50;99.90;;;;;;5112600;28;20295;-51
2022/08/05 01:16:28;;;;;;;8.13;4.95;;;23.50;99.90;;;;;;5112643;28;20290;-51
2022/08/05 01:19:04;;;;;;;16.80;5.95;;;23.40;99.90;;;;;;5104599;28;20224;-51
2022/08/05 01:21:52;;;;;;;8.38;5.53;;;23.30;99.90;;;;;;5108003;28;20729;-51
2022/08/05 01:24:41;;;;;;;8.13;5.47;;;23.30;99.90;;;;;;5092920;28;20239;-51
2022/08/05 01:27:24;;;;;;;11.38;6.45;;;23.30;99.90;;;;;;5112489;28;20235;-51
2022/08/05 01:30:00;;;;;;;12.45;5.88;;;23.30;99.90;;;;;;5106233;28;20272;-51
2022/08/05 01:32:32;;;;;;;13.10;7.15;;;23.20;99.90;;;;;;5110862;28;20284;-51
2022/08/05 01:35:02;;;;;;;13.57;7.28;;;23.20;99.90;;;;;;5106577;28;20203;-51
2022/08/05 01:37:45;;;;;;;13.77;7.35;;;23.10;99.90;;;;;;5112071;28;20286;-51
2022/08/05 01:40:15;;;;;;;10.75;7.00;;;23.10;99.90;;;;;;5111358;28;20231;-51
2022/08/05 01:42:46;;;;;;;12.00;7.53;;;23.10;99.90;;;;;;5111833;28;20282;-51
2022/08/05 01:45:16;;;;;;;10.60;6.72;;;23.10;99.90;;;;;;5112193;28;20884;-51
2022/08/05 01:47:49;;;;;;;9.52;6.53;;;23.00;99.90;;;;;;5111742;28;20672;-52
2022/08/05 01:50:26;;;;;;;8.10;6.68;;;22.90;99.90;;;;;;5111863;28;20745;-51
2022/08/05 01:52:59;;;;;;;11.27;7.45;;;22.80;99.90;;;;;;5111651;28;20671;-51
2022/08/05 01:55:32;;;;;;;11.30;7.35;;;22.70;99.90;;;;;;5111290;28;20215;-52
2022/08/05 01:58:05;;;;;;;13.98;8.43;;;22.40;99.90;;;;;;5111778;28;20692;-51
2022/08/05 02:00:48;;;;;;;11.32;9.43;;;22.30;99.90;;;;;;5106611;28;20310;-51
2022/08/05 02:03:21;;;;;;;14.27;9.43;;;22.00;99.90;;;;;;5111926;28;20210;-51
2022/08/05 02:06:00;;;;;;;17.70;9.88;;;21.70;99.90;;;;;;5110618;28;20199;-52
2022/08/05 02:08:49;;;;;;;10.48;8.52;;;21.50;99.90;;;;;;5111883;28;20327;-51
2022/08/05 02:11:32;;;;;;;10.50;7.82;;;21.20;99.90;;;;;;5111929;28;20226;-51
2022/08/05 02:14:07;;;;;;;11.73;7.13;;;21.20;99.90;;;;;;5112058;28;20237;-51
2022/08/05 02:16:46;;;;;;;13.32;9.00;;;21.10;99.90;;;;;;5108279;28;20231;-51
2022/08/05 02:19:30;;;;;;;13.82;9.35;;;21.00;99.90;;;;;;5091881;28;20330;-51
2022/08/05 02:22:08;;;;;;;14.15;10.77;;;21.00;99.90;;;;;;5111136;28;20207;-51
2022/08/05 02:24:58;;;;;;;14.55;10.65;;;21.00;99.90;;;;;;5110289;28;20211;-51
2022/08/05 02:27:28;;;;;;;14.38;12.07;;;21.10;99.90;;;;;;5109433;28;20206;-51
2022/08/05 02:30:17;;;;;;;15.43;11.55;;;21.20;99.90;;;;;;5108670;28;20223;-51
2022/08/05 02:32:50;;;;;;;14.57;11.60;;;21.20;99.90;;;;;;5107273;28;20216;-51
2022/08/05 02:35:21;;;;;;;13.95;11.55;;;21.20;99.90;;;;;;5107692;28;20211;-51
2022/08/05 02:38:00;;;;;;;18.30;13.10;;;21.20;99.90;;;;;;5111331;28;20618;-51
2022/08/05 02:40:30;;;;;;;12.85;11.38;;;21.20;99.90;;;;;;5101465;28;20668;-50
2022/08/05 02:42:59;;;;;;;15.15;12.90;;;21.30;99.90;;;;;;5111169;28;20203;-51
2022/08/05 02:45:28;;;;;;;14.98;13.13;;;21.30;99.90;;;;;;5110886;28;20208;-51
2022/08/05 02:48:18;;;;;;;16.38;13.52;;;21.30;99.90;;;;;;5110209;28;20299;-50
2022/08/05 02:50:59;;;;;;;15.90;14.20;;;21.30;99.90;;;;;;5111049;28;20187;-51
2022/08/05 02:53:28;;;;;;;17.08;14.13;;;21.20;99.90;;;;;;5110382;28;20235;-51
2022/08/05 02:56:08;;;;;;;17.60;14.32;;;21.20;99.90;;;;;;5102485;28;20199;-51
2022/08/05 02:58:38;;;;;;;20.02;14.77;;;21.20;99.90;;;;;;5110511;28;20654;-51
2022/08/05 03:01:15;;;;;;;16.52;14.75;;;21.20;99.90;;;;;;5110990;28;20230;-51
2022/08/05 03:03:52;;;;;;;17.17;14.73;;;21.20;99.90;;;;;;5110181;28;20227;-51
2022/08/05 03:06:31;;;;;;;18.17;13.82;;;21.20;99.90;;;;;;5101509;28;20208;-51
2022/08/05 03:09:19;;;;;;;19.65;15.90;;;21.20;99.90;;;;;;5110377;28;20235;-50
2022/08/05 03:12:06;;;;;;;17.90;15.05;;;21.30;99.90;;;;;;5111055;28;20282;-51
2022/08/05 03:14:35;;;;;;;17.15;15.45;;;21.30;99.90;;;;;;5110278;28;20207;-51
2022/08/05 03:17:12;;;;;;;18.83;15.77;;;21.30;99.90;;;;;;5110436;28;20211;-51
2022/08/05 03:19:42;;;;;;;18.75;16.77;;;21.30;99.90;;;;;;5089883;28;20215;-51
2022/08/05 03:22:13;;;;;;;18.88;16.08;;;21.40;99.90;;;;;;5110502;28;20683;-51
2022/08/05 03:24:48;;;;;;;21.67;17.52;;;21.40;99.90;;;;;;5109534;28;20231;-51
2022/08/05 03:27:20;;;;;;;21.90;19.08;;;21.30;99.90;;;;;;5109807;28;20200;-51
2022/08/05 03:29:49;;;;;;;24.85;18.42;;;21.30;99.90;;;;;;5109694;28;20223;-51
2022/08/05 03:32:35;;;;;;;19.15;16.55;;;21.20;99.90;;;;;;5108043;28;20819;-51
2022/08/05 03:35:07;;;;;;;21.02;18.15;;;21.20;99.90;;;;;;5110486;28;20351;-51
2022/08/05 03:37:37;;;;;;;18.52;16.35;;;21.20;99.90;;;;;;5110133;28;20683;-52
2022/08/05 03:40:13;;;;;;;16.02;14.43;;;21.40;99.90;;;;;;5096982;28;20229;-51
2022/08/05 03:42:51;;;;;;;19.95;17.70;;;21.40;99.90;;;;;;5097442;28;20220;-51
2022/08/05 03:45:20;;;;;;;21.40;17.50;;;21.40;99.90;;;;;;5110052;28;20214;-51
2022/08/05 03:47:50;;;;;;;19.60;17.20;;;21.40;99.90;;;;;;5098142;28;20211;-51
2022/08/05 03:50:26;;;;;;;18.15;16.35;;;21.40;99.90;;;;;;5110328;28;20227;-51
2022/08/05 03:53:04;;;;;;;19.08;17.15;;;21.40;99.90;;;;;;5109866;28;20575;-51
2022/08/05 03:56:04;;;;;;;19.13;17.13;;;21.30;99.90;;;;;;5104694;28;20290;-52
2022/08/05 03:58:47;;;;;;;22.83;19.15;;;21.30;99.90;;;;;;5109517;28;20297;-51
2022/08/05 04:01:20;;;;;;;19.10;17.05;;;21.30;99.90;;;;;;5109741;28;20261;-51
2022/08/05 04:03:50;;;;;;;21.63;19.38;;;21.40;99.90;;;;;;5109617;28;20221;-51
2022/08/05 04:06:39;;;;;;;24.98;18.83;;;21.40;99.90;;;;;;5109808;28;20577;-51
2022/08/05 04:09:16;;;;;;;22.33;19.35;;;21.40;99.90;;;;;;5109351;28;20778;-51
2022/08/05 04:11:54;;;;;;;19.35;16.80;;;21.40;99.90;;;;;;5109731;28;20203;-52
2022/08/05 04:14:25;;;;;;;19.55;17.45;;;21.40;99.90;;;;;;5109840;28;20213;-51
2022/08/05 04:16:58;;;;;;;25.05;19.35;;;21.40;99.90;;;;;;5109870;28;20203;-52
2022/08/05 04:19:27;;;;;;;16.75;14.85;;;21.40;99.90;;;;;;5105294;28;20599;-51
2022/08/05 04:21:58;;;;;;;19.00;14.93;;;21.40;99.90;;;;;;5110280;28;20227;-50
2022/08/05 04:24:40;;;;;;;16.75;14.13;;;21.40;99.90;;;;;;5085058;28;20218;-52
2022/08/05 04:27:11;;;;;;;19.98;17.85;;;21.40;99.90;;;;;;5110065;28;20234;-51
2022/08/05 04:29:40;;;;;;;19.23;15.07;;;21.40;99.90;;;;;;5096832;28;20661;-51
2022/08/05 04:32:09;;;;;;;19.05;16.85;;;21.50;99.90;;;;;;5109300;28;20591;-51
2022/08/05 04:34:37;;;;;;;17.77;15.70;;;21.50;99.90;;;;;;5090464;28;20265;-52
2022/08/05 04:37:11;;;;;;;17.92;15.63;;;21.40;99.90;;;;;;5099514;28;20624;-51
2022/08/05 04:39:39;;;;;;;20.23;17.38;;;21.40;99.90;;;;;;5109186;28;20231;-51
2022/08/05 04:42:08;;;;;;;18.73;16.67;;;21.40;99.90;;;;;;5109297;28;20784;-50
2022/08/05 04:44:37;;;;;;;16.85;14.40;;;21.40;99.90;;;;;;5109642;28;20257;-51
2022/08/05 04:47:06;;;;;;;20.80;16.98;;;21.40;99.90;;;;;;5103389;28;20201;-52
2022/08/05 04:49:37;;;;;;;19.58;16.48;;;21.40;99.90;;;;;;5103454;28;20263;-52
2022/08/05 04:52:27;;;;;;;19.60;17.50;;;21.40;99.90;;;;;;5109086;28;20303;-51
2022/08/05 04:54:55;;;;;;;24.88;21.73;;;21.40;99.90;;;;;;5103114;28;20204;-51
2022/08/05 04:57:26;;;;;;;24.08;20.05;;;21.40;99.90;;;;;;5108947;28;20203;-52
2022/08/05 04:59:56;;;;;;;20.67;17.80;;;21.40;99.90;;;;;;5109206;28;20259;-51
2022/08/05 05:02:25;;;;;;;20.98;18.73;;;21.40;99.90;;;;;;5109300;28;20306;-51
2022/08/05 05:05:10;;;;;;;20.20;18.10;;;21.40;99.90;;;;;;5109275;28;20203;-52
2022/08/05 05:08:00;;;;;;;21.77;19.15;;;21.40;99.90;;;;;;5108854;28;20203;-50
2022/08/05 05:10:29;;;;;;;20.80;18.08;;;21.50;99.90;;;;;;5109008;28;20206;-52
2022/08/05 05:13:00;;;;;;;18.90;16.92;;;21.50;99.90;;;;;;5112556;28;20241;-51
2022/08/05 05:15:33;;;;;;;19.35;17.05;;;21.50;99.90;;;;;;5112988;28;20268;-51
2022/08/05 05:18:23;;;;;;;21.10;18.73;;;21.60;99.90;;;;;;5109764;28;20685;-52
2022/08/05 05:21:01;;;;;;;20.50;17.77;;;21.70;99.90;;;;;;5112578;28;20198;-52
2022/08/05 05:23:32;;;;;;;21.23;19.13;;;21.70;99.90;;;;;;5112631;28;20224;-52
2022/08/05 05:26:20;;;;;;;25.25;22.13;;;21.60;99.90;;;;;;5106686;28;20210;-51
2022/08/05 05:29:00;;;;;;;23.15;20.42;;;21.60;99.90;;;;;;5098969;28;20227;-52
2022/08/05 05:31:29;;;;;;;25.42;22.75;;;21.50;99.90;;;;;;5112300;28;20736;-52
2022/08/05 05:33:57;;;;;;;22.98;20.00;;;21.50;99.90;;;;;;5098757;28;20249;-51
2022/08/05 05:36:30;;;;;;;23.65;21.20;;;21.50;99.90;;;;;;5095665;28;20212;-52
2022/08/05 05:39:00;;;;;;;22.98;20.48;;;21.50;99.90;;;;;;5084576;28;20724;-51
2022/08/05 05:41:31;;;;;;;22.15;19.88;;;21.50;99.90;;;;;;5091781;28;20215;-52
2022/08/05 05:44:09;;;;;;;28.95;25.85;;;21.60;99.90;;;;;;5091953;28;20211;-51
2022/08/05 05:46:58;;;;;;;27.55;24.52;;;21.60;99.90;;;;;;5078487;28;20232;-51
2022/08/05 05:49:34;;;;;;;26.48;22.65;;;21.70;99.90;;;;;;5098584;28;20234;-51
2022/08/05 05:52:02;;;;;;;27.02;21.83;;;21.70;99.90;;;;;;5077650;28;20730;-51
2022/08/05 05:54:35;;;;;;;27.75;24.67;;;21.80;99.90;;;;;;5085123;28;20204;-51
2022/08/05 05:57:18;;;;;;;27.08;24.27;;;21.80;99.90;;;;;;5084935;28;20209;-51
2022/08/05 05:59:46;;;;;;;26.17;22.23;;;21.80;99.90;;;;;;5084575;28;20724;-50
2022/08/05 06:02:16;;;;;;;26.05;22.52;;;21.80;99.90;;;;;;5091173;28;20327;-50
2022/08/05 06:04:59;;;;;;;25.20;22.50;;;21.80;99.90;;;;;;5091070;28;20204;-51
2022/08/05 06:07:30;;;;;;;27.30;22.83;;;21.70;99.90;;;;;;5077766;28;20208;-52
2022/08/05 06:10:11;;;;;;;26.25;21.33;;;21.70;99.90;;;;;;5085671;28;20761;-52
2022/08/05 06:12:40;;;;;;;22.88;20.52;;;21.60;99.90;;;;;;5077794;28;20196;-52
2022/08/05 06:15:10;;;;;;;25.38;22.67;;;21.60;99.90;;;;;;5091382;28;20208;-52
2022/08/05 06:17:50;;;;;;;31.38;26.52;;;21.60;99.90;;;;;;5078335;28;20208;-51
2022/08/05 06:20:44;;;;;;;28.08;23.92;;;21.60;99.90;;;;;;5091048;28;20228;-51
2022/08/05 06:23:14;;;;;;;23.10;20.33;;;21.50;99.90;;;;;;5080503;28;20227;-52
2022/08/05 06:25:44;;;;;;;25.92;21.30;;;21.60;99.90;;;;;;5090623;28;20269;-52
2022/08/05 06:28:32;;;;;;;25.00;21.95;;;21.70;99.90;;;;;;5090106;28;20228;-52
2022/08/05 06:31:00;;;;;;;21.73;19.45;;;21.80;99.90;;;;;;5090633;28;20239;-52
2022/08/05 06:33:38;;;;;;;21.50;18.90;;;21.80;99.90;;;;;;5090662;28;20266;-52
2022/08/05 06:36:26;;;;;;;21.30;18.13;;;21.90;99.90;;;;;;5090212;28;20300;-52
2022/08/05 06:39:07;;;;;;;20.10;17.95;;;21.90;99.90;;;;;;5090052;28;20728;-52
2022/08/05 06:41:37;;;;;;;19.40;16.48;;;21.90;99.90;;;;;;5090815;28;20223;-51
2022/08/05 06:44:08;;;;;;;19.23;17.33;;;22.00;99.90;;;;;;5090659;28;20254;-51
2022/08/05 06:46:36;;;;;;;17.05;15.25;;;22.00;99.90;;;;;;5090299;28;20665;-51
2022/08/05 06:49:04;;;;;;;15.65;13.88;;;22.10;99.90;;;;;;5099125;28;20219;-52
2022/08/05 06:51:34;;;;;;;17.40;15.73;;;22.10;99.90;;;;;;5110759;28;20203;-52
2022/08/05 06:54:07;;;;;;;17.15;15.43;;;22.20;99.90;;;;;;5110124;28;20696;-51
2022/08/05 06:56:40;;;;;;;17.90;16.10;;;22.20;99.90;;;;;;5097508;28;20607;-51
2022/08/05 06:59:22;;;;;;;17.05;15.32;;;22.10;99.90;;;;;;5087213;28;20267;-51
2022/08/05 07:01:50;;;;;;;16.83;15.02;;;22.10;99.90;;;;;;5089799;28;20205;-51
2022/08/05 07:04:20;;;;;;;17.67;15.98;;;22.10;99.90;;;;;;5090144;28;20232;-52
2022/08/05 07:06:48;;;;;;;14.15;12.57;;;22.20;99.90;;;;;;5089484;28;20265;-52
2022/08/05 07:09:17;;;;;;;17.40;15.70;;;22.20;99.90;;;;;;5089391;28;20728;-52
2022/08/05 07:11:47;;;;;;;22.40;20.02;;;22.20;99.90;;;;;;5089981;28;20646;-51
2022/08/05 07:17:04;;;;;;;34.15;27.38;;;22.50;99.90;;;;;;5089979;28;20262;-52
2022/08/05 07:19:53;;;;;;;26.95;24.25;;;22.60;99.90;;;;;;5090123;28;20310;-51
2022/08/05 07:22:42;;;;;;;27.27;24.42;;;22.70;99.90;;;;;;5089610;28;20208;-52
2022/08/05 07:25:12;;;;;;;23.27;20.77;;;22.90;99.90;;;;;;5089860;28;20776;-52
2022/08/05 07:28:01;;;;;;;25.30;22.63;;;23.00;99.90;;;;;;5090265;28;20244;-52
2022/08/05 07:30:39;;;;;;;21.38;19.13;;;23.30;99.90;;;;;;5089418;28;20212;-51
2022/08/05 07:33:09;;;;;;;21.48;19.27;;;23.40;99.90;;;;;;5089797;28;20200;-52
2022/08/05 07:35:44;;;;;;;19.17;17.17;;;23.40;99.90;;;;;;5088891;28;20218;-52
2022/08/05 07:38:32;;;;;;;19.77;17.75;;;23.60;99.90;;;;;;5089055;28;20231;-52
2022/08/05 07:41:16;;;;;;;18.13;16.33;;;24.00;99.90;;;;;;5089751;28;20226;-51
2022/08/05 07:44:07;;;;;;;19.35;15.65;;;24.00;99.90;;;;;;5089663;28;20748;-51
2022/08/05 07:46:46;;;;;;;16.83;14.93;;;24.00;99.90;;;;;;5089347;28;20254;-52
2022/08/05 07:49:17;;;;;;;13.43;12.13;;;24.10;99.90;;;;;;5100607;28;20227;-51
2022/08/05 07:51:45;;;;;;;13.55;12.15;;;24.20;99.90;;;;;;5104136;28;20234;-52
2022/08/05 07:54:25;;;;;;;15.30;13.70;;;24.30;99.90;;;;;;5107148;28;20664;-52
2022/08/05 07:57:01;;;;;;;15.88;14.25;;;24.20;99.90;;;;;;5108186;28;20751;-52
2022/08/05 07:59:50;;;;;;;16.30;14.35;;;24.10;99.90;;;;;;5110065;28;20319;-51
2022/08/05 08:02:23;;;;;;;16.75;14.85;;;23.70;99.90;;;;;;5109673;28;20211;-52
2022/08/05 08:04:58;;;;;;;16.17;14.48;;;23.60;99.90;;;;;;5107114;28;20313;-51
2022/08/05 08:07:27;;;;;;;16.77;14.90;;;23.60;99.90;;;;;;5095883;28;20223;-51
2022/08/05 08:10:07;;;;;;;16.48;14.18;;;23.70;99.90;;;;;;5109612;28;20259;-52
2022/08/05 08:12:35;;;;;;;16.70;13.98;;;23.90;99.90;;;;;;5109738;28;20204;-52
2022/08/05 08:15:18;;;;;;;14.75;13.35;;;23.90;99.90;;;;;;5109648;28;20204;-51
2022/08/05 08:18:06;;;;;;;14.50;13.02;;;23.80;99.90;;;;;;5105322;28;20238;-51
2022/08/05 08:20:41;;;;;;;13.35;11.95;;;24.00;99.90;;;;;;5091811;28;20227;-51
2022/08/05 08:23:29;;;;;;;13.02;11.73;;;24.10;99.90;;;;;;5104522;28;20294;-52
2022/08/05 08:26:17;;;;;;;11.60;10.40;;;24.20;99.90;;;;;;5109390;28;20326;-51
2022/08/05 08:28:57;;;;;;;14.35;12.82;;;24.30;99.90;;;;;;5108680;28;20695;-51
2022/08/05 08:31:47;;;;;;;12.98;11.60;;;24.40;99.90;;;;;;5109380;28;20307;-51
2022/08/05 08:34:15;;;;;;;11.70;10.50;;;24.60;99.90;;;;;;5108266;28;20705;-52
2022/08/05 08:36:46;;;;;;;11.50;10.35;;;24.90;99.90;;;;;;5109725;28;20231;-51
2022/08/05 08:39:23;;;;;;;12.23;11.02;;;25.30;99.90;;;;;;5108846;28;20241;-52
2022/08/05 08:41:55;;;;;;;12.80;9.48;;;25.40;99.90;;;;;;5109172;28;20253;-52
2022/08/05 08:44:30;;;;;;;14.48;11.20;;;25.30;99.90;;;;;;5109371;28;20215;-52
2022/08/05 08:47:23;;;;;;;10.82;9.73;;;25.00;99.90;;;;;;5111811;28;20235;-52
2022/08/05 08:50:13;;;;;;;11.00;9.90;;;24.70;99.90;;;;;;5113414;28;20629;-52
2022/08/05 08:53:04;;;;;;;11.10;9.98;;;24.40;99.90;;;;;;5112629;28;20215;-52
2022/08/05 08:55:39;;;;;;;12.30;11.00;;;24.30;99.90;;;;;;5109117;28;20256;-51
2022/08/05 08:58:27;;;;;;;12.48;11.27;;;24.10;99.90;;;;;;5113190;28;20676;-52
2022/08/05 09:01:15;;;;;;;11.88;10.23;;;24.10;99.90;;;;;;5112770;28;20214;-52
2022/08/05 09:03:48;;;;;;;10.18;9.15;;;24.00;99.90;;;;;;5112069;28;20204;-52
2022/08/05 09:06:25;;;;;;;11.55;10.23;;;24.00;99.90;;;;;;5113433;28;20235;-52
2022/08/05 09:08:58;;;;;;;11.50;10.38;;;24.00;99.90;;;;;;5113290;28;20231;-51
2022/08/05 09:11:27;;;;;;;12.02;10.85;;;24.00;99.90;;;;;;5103784;28;20208;-52
2022/08/05 09:14:15;;;;;;;12.43;11.23;;;24.00;99.90;;;;;;5092599;28;20208;-52
2022/08/05 09:17:06;;;;;;;11.88;10.68;;;24.00;99.90;;;;;;5089398;28;20204;-52
2022/08/05 09:19:38;;;;;;;11.68;10.48;;;24.00;99.90;;;;;;5088924;28;20275;-52
2022/08/05 09:22:26;;;;;;;10.77;9.68;;;24.20;99.90;;;;;;5084378;28;20291;-51
2022/08/05 09:25:01;;;;;;;10.65;9.52;;;24.40;99.90;;;;;;5092534;28;20236;-51
2022/08/05 09:27:40;;;;;;;11.60;10.05;;;24.80;99.90;;;;;;5092397;28;20289;-52
2022/08/05 09:30:29;;;;;;;11.00;9.85;;;25.00;99.90;;;;;;5080229;28;20316;-51
2022/08/05 09:33:01;;;;;;;10.50;9.50;;;25.40;99.90;;;;;;5091692;28;20208;-52
2022/08/05 09:35:33;;;;;;;11.55;10.00;;;25.40;99.90;;;;;;5092630;28;20214;-51
2022/08/05 09:38:02;;;;;;;10.70;9.60;;;25.30;99.90;;;;;;5091494;28;20211;-51
2022/08/05 09:40:45;;;;;;;10.70;9.50;;;25.10;99.90;;;;;;5080394;28;20646;-52
2022/08/05 09:43:31;;;;;;;10.63;9.63;;;25.00;99.90;;;;;;5083730;28;20212;-52
2022/08/05 09:46:24;;;;;;;13.90;9.98;;;25.00;99.90;;;;;;5086785;28;20220;-52
2022/08/05 09:48:56;;;;;;;11.10;9.05;;;25.40;99.90;;;;;;5090754;28;20224;-53
2022/08/05 09:51:45;;;;;;;9.98;8.10;;;25.80;99.90;;;;;;5091684;28;20305;-53
2022/08/05 09:54:29;;;;;;;10.77;8.70;;;25.90;99.90;;;;;;5091366;28;20220;-52
2022/08/05 09:56:57;;;;;;;9.40;8.48;;;25.80;99.90;;;;;;5090849;28;20226;-53
2022/08/05 09:59:28;;;;;;;8.63;7.72;;;25.70;99.90;;;;;;5084581;28;20239;-52
2022/08/05 10:02:04;;;;;;;9.10;7.85;;;25.70;99.90;;;;;;5091528;28;20334;-53
2022/08/05 10:04:36;;;;;;;8.52;7.70;;;25.90;99.90;;;;;;5090499;28;20228;-52
2022/08/05 10:07:07;;;;;;;10.20;8.23;;;25.90;99.90;;;;;;5090936;28;20617;-52
2022/08/05 10:09:56;;;;;;;8.50;7.60;;;25.90;99.90;;;;;;5080261;28;20247;-52
2022/08/05 10:12:47;;;;;;;10.32;8.00;;;26.00;99.90;;;;;;5090423;28;20236;-52
2022/08/05 10:15:22;;;;;;;8.93;7.60;;;26.30;99.90;;;;;;5090977;28;20200;-53
2022/08/05 10:18:11;;;;;;;9.65;8.10;;;26.40;99.90;;;;;;5090387;28;20292;-53
2022/08/05 10:20:45;;;;;;;9.75;8.80;;;26.60;99.90;;;;;;5070999;28;20255;-52
2022/08/05 10:23:19;;;;;;;9.00;8.10;;;26.40;99.90;;;;;;5076917;28;20229;-52
2022/08/05 10:26:09;;;;;;;8.25;7.30;;;26.30;99.90;;;;;;5089619;28;20318;-53
2022/08/05 10:28:42;;;;;;;12.10;8.00;;;26.30;99.90;;;;;;5090050;28;20226;-52
2022/08/05 10:31:13;;;;;;;9.55;8.50;;;26.20;99.90;;;;;;5090836;28;20208;-52
2022/08/05 10:34:01;;;;;;;8.63;7.85;;;26.00;99.90;;;;;;5090972;28;20295;-52
2022/08/05 10:36:30;;;;;;;9.38;8.52;;;25.90;99.90;;;;;;5090016;28;20636;-52
2022/08/05 10:39:05;;;;;;;9.10;8.15;;;25.80;99.90;;;;;;5089937;28;20231;-52
2022/08/05 10:41:52;;;;;;;9.52;8.63;;;25.70;99.90;;;;;;5089979;28;20228;-53
2022/08/05 10:44:25;;;;;;;11.20;9.05;;;25.80;99.90;;;;;;5090735;28;20207;-52
2022/08/05 10:46:55;;;;;;;11.25;8.15;;;26.10;99.90;;;;;;5089143;28;20254;-53
2022/08/05 10:49:25;;;;;;;8.88;7.97;;;26.30;99.90;;;;;;5090507;28;20248;-52
2022/08/05 10:52:01;;;;;;;10.50;8.68;;;26.50;99.90;;;;;;5089935;28;20210;-52
2022/08/05 10:55:02;;;;;;;8.38;7.57;;;26.70;99.90;;;;;;5089717;28;20201;-52
2022/08/05 10:57:30;;;;;;;9.93;9.13;;;26.80;99.90;;;;;;5078273;28;20212;-53
2022/08/05 11:00:13;;;;;;;10.18;9.10;;;26.90;99.90;;;;;;5090336;28;20232;-53
2022/08/05 11:03:13;;;;;;;9.98;9.07;;;26.90;99.90;;;;;;5089440;28;20646;-52
2022/08/05 11:06:08;;;;;;;11.18;10.02;;;26.90;99.90;;;;;;5090578;28;20211;-53
2022/08/05 11:09:14;;;;;;;12.10;10.80;;;26.90;99.90;;;;;;5087938;28;20247;-53
2022/08/05 11:11:48;;;;;;;11.27;10.18;;;26.90;99.90;;;;;;5089880;28;20738;-53
2022/08/05 11:14:32;;;;;;;12.68;11.57;;;27.00;99.90;;;;;;5083182;28;20208;-52
2022/08/05 11:17:29;;;;;;;14.13;12.82;;;27.00;99.90;;;;;;5088006;28;20207;-52
2022/08/05 11:20:39;;;;;;;14.60;13.18;;;26.90;99.90;;;;;;5078608;28;20680;-55
2022/08/05 11:23:42;;;;;;;15.85;14.35;;;27.00;99.90;;;;;;5076022;28;20203;-52
2022/08/05 11:26:31;;;;;;;17.85;14.38;;;26.90;99.90;;;;;;5006500;28;20321;-52
2022/08/05 11:29:03;;;;;;;16.17;14.45;;;26.80;99.90;;;;;;5084019;28;20228;-51
2022/08/05 11:31:42;;;;;;;15.40;13.60;;;27.00;99.90;;;;;;5089613;28;20273;-52
2022/08/05 11:34:38;;;;;;;15.00;13.48;;;27.20;99.90;;;;;;5089299;28;20211;-52
2022/08/05 11:37:58;;;;;;;15.63;14.05;;;27.30;99.90;;;;;;5089670;28;20215;-53
2022/08/05 11:41:03;;;;;;;14.30;12.90;;;27.50;99.90;;;;;;5069650;28;20307;-52
2022/08/05 11:43:57;;;;;;;14.70;13.18;;;27.50;99.90;;;;;;5089402;28;20290;-53
2022/08/05 11:46:36;;;;;;;15.55;13.88;;;27.80;99.90;;;;;;5089186;28;20243;-52
2022/08/05 11:49:24;;;;;;;14.80;13.40;;;27.90;99.90;;;;;;5089461;28;20318;-52
2022/08/05 11:51:53;;;;;;;12.88;11.68;;;27.90;99.90;;;;;;5089821;28;20204;-52
2022/08/05 11:54:26;;;;;;;14.95;13.07;;;28.00;99.90;;;;;;5088919;28;20210;-52
2022/08/05 11:57:02;;;;;;;14.10;12.70;;;27.80;99.90;;;;;;5089379;28;20737;-52
2022/08/05 11:59:50;;;;;;;12.57;11.27;;;27.70;99.90;;;;;;5073696;28;20233;-51
2022/08/05 12:02:25;;;;;;;11.93;10.82;;;27.60;99.90;;;;;;5097425;28;20211;-52
2022/08/05 12:05:00;;;;;;;11.80;10.65;;;27.40;99.90;;;;;;5109570;28;20291;-52
2022/08/05 12:07:36;;;;;;;11.77;10.45;;;27.50;99.90;;;;;;5100588;28;20578;-52
2022/08/05 12:10:27;;;;;;;11.88;10.68;;;27.50;99.90;;;;;;5107160;28;20266;-52
2022/08/05 12:13:15;;;;;;;12.57;11.30;;;27.50;99.90;;;;;;5109336;28;20215;-52
2022/08/05 12:16:04;;;;;;;11.05;9.95;;;27.40;99.90;;;;;;5107551;28;20804;-52
2022/08/05 12:18:45;;;;;;;11.30;10.23;;;27.40;99.90;;;;;;5105514;28;20716;-53
2022/08/05 12:21:22;;;;;;;11.90;10.75;;;27.30;99.90;;;;;;5077683;28;20261;-52
2022/08/05 12:23:57;;;;;;;12.40;11.05;;;27.10;99.90;;;;;;5092845;28;20583;-52
2022/08/05 12:26:35;;;;;;;12.93;11.63;;;26.80;99.90;;;;;;5092090;28;20314;-53
2022/08/05 12:29:04;;;;;;;11.85;10.65;;;26.30;99.90;;;;;;5092727;28;20228;-52
2022/08/05 12:31:39;;;;;;;11.82;10.63;;;26.00;99.90;;;;;;5092955;28;20191;-52
2022/08/05 12:34:18;;;;;;;11.98;10.88;;;25.70;99.90;;;;;;5092652;28;20210;-52
2022/08/05 12:36:50;;;;;;;11.63;10.45;;;25.70;99.90;;;;;;5082298;28;20215;-53
2022/08/05 12:39:18;;;;;;;12.13;9.93;;;25.60;99.90;;;;;;5113147;28;20306;-52
2022/08/05 12:41:47;;;;;;;9.15;8.15;;;25.50;99.90;;;;;;5113798;28;20199;-52
2022/08/05 12:44:17;;;;;;;7.75;6.97;;;25.30;99.90;;;;;;5112554;28;20315;-53
2022/08/05 12:47:01;;;;;;;7.40;6.00;;;24.90;99.90;;;;;;5112950;28;20223;-53
2022/08/05 12:49:43;;;;;;;7.15;6.00;;;24.40;99.90;;;;;;5112430;28;20238;-52
2022/08/05 12:52:31;;;;;;;6.70;5.00;;;24.00;99.90;;;;;;5113002;28;20291;-52
2022/08/05 12:55:20;;;;;;;5.45;4.95;;;23.70;99.90;;;;;;5094986;28;20201;-52
2022/08/05 12:57:50;;;;;;;4.97;4.50;;;23.30;99.90;;;;;;5085714;28;20209;-52
2022/08/05 13:00:43;;;;;;;4.45;3.92;;;23.30;99.90;;;;;;5086168;28;20300;-52
2022/08/05 13:03:31;;;;;;;4.05;3.75;;;23.30;99.90;;;;;;5092128;28;20292;-51
2022/08/05 13:06:01;;;;;;;4.28;3.88;;;23.20;99.90;;;;;;5091898;28;20220;-52
2022/08/05 13:08:30;;;;;;;4.15;3.75;;;23.20;99.90;;;;;;5092070;28;20220;-51
2022/08/05 13:11:00;;;;;;;4.20;3.80;;;23.20;99.90;;;;;;5092342;28;20200;-51
2022/08/05 13:13:29;;;;;;;4.15;3.85;;;23.10;99.90;;;;;;5092153;28;20677;-50
2022/08/05 13:16:19;;;;;;;4.25;3.85;;;23.00;99.90;;;;;;5092423;28;20287;-52
2022/08/05 13:18:52;;;;;;;3.70;3.40;;;23.00;99.90;;;;;;5091921;28;20807;-52
2022/08/05 13:21:27;;;;;;;3.33;3.03;;;23.00;99.90;;;;;;5078348;28;20208;-52
2022/08/05 13:24:05;;;;;;;3.10;2.80;;;23.00;99.90;;;;;;5092129;28;20580;-52
2022/08/05 13:26:35;;;;;;;3.40;2.60;;;22.80;99.90;;;;;;5078305;28;20234;-52
2022/08/05 13:29:04;;;;;;;3.03;2.83;;;22.90;99.90;;;;;;5088920;28;20720;-52